Time;durP1;ratioP1;P1;durP2;ratioP2;P2;SDS_P1;SDS_P2;PMS_P1;PMS_P2;Temp;Humidity;BMP_temperature;BMP_pressure;BME280_temperature;BME280_humidity;BME280_pressure;Samples;Min_cycle;Max_cycle;Signal;HPM_P1;HPM_P2
2022/10/13 00:00:03;;;;;;;43.80;20.40;;;;;;;9.21;67.02;101131.80;103434;1300;110894;-82
2022/10/13 00:03:00;;;;;;;41.30;20.30;;;;;;;9.16;67.09;101134.80;103315;1292;137759;-83
2022/10/13 00:05:30;;;;;;;37.40;20.60;;;;;;;9.12;67.25;101135.19;103432;1290;107638;-82
2022/10/13 00:08:00;;;;;;;41.60;20.70;;;;;;;9.08;67.48;101132.80;103267;1288;139374;-81
2022/10/13 00:10:34;;;;;;;37.80;21.00;;;;;;;9.08;67.64;101132.63;103411;1298;98111;-82
2022/10/13 00:13:03;;;;;;;37.60;20.30;;;;;;;9.07;67.82;101129.34;103433;1293;111905;-82
2022/10/13 00:15:32;;;;;;;38.80;19.90;;;;;;;9.06;67.86;101128.84;103345;1292;138542;-83
2022/10/13 00:18:00;;;;;;;43.50;19.00;;;;;;;9.05;67.88;101126.94;103406;1291;107924;-81
2022/10/13 00:20:29;;;;;;;37.60;20.20;;;;;;;9.04;67.99;101124.01;103283;1292;139347;-82
2022/10/13 00:22:58;;;;;;;38.70;21.50;;;;;;;9.03;68.12;101122.98;103396;1293;97823;-82
2022/10/13 00:25:26;;;;;;;41.40;20.80;;;;;;;9.01;68.02;101124.23;103424;1293;112280;-82
2022/10/13 00:27:55;;;;;;;37.40;19.40;;;;;;;8.97;68.10;101122.17;103313;1294;138464;-82
2022/10/13 00:30:24;;;;;;;37.10;20.20;;;;;;;8.93;68.14;101119.44;103454;1293;108781;-83
2022/10/13 00:32:53;;;;;;;38.00;20.70;;;;;;;8.92;68.36;101119.81;103352;1297;138482;-82
2022/10/13 00:35:22;;;;;;;33.80;19.90;;;;;;;8.89;68.33;101120.70;103445;1292;98446;-82
2022/10/13 00:37:52;;;;;;;40.60;19.10;;;;;;;8.86;68.46;101118.67;103465;1285;112433;-83
2022/10/13 00:40:21;;;;;;;37.70;20.20;;;;;;;8.84;68.43;101118.86;103437;1300;108827;-82
2022/10/13 00:42:49;;;;;;;43.50;20.40;;;;;;;8.82;68.54;101115.95;103414;1301;106691;-82
2022/10/13 00:45:23;;;;;;;39.50;19.10;;;;;;;8.78;68.71;101118.73;103368;1293;139039;-82
2022/10/13 00:47:56;;;;;;;38.90;19.30;;;;;;;8.76;68.69;101117.03;103412;1294;97702;-82
2022/10/13 00:50:31;;;;;;;41.70;18.80;;;;;;;8.73;68.76;101113.25;103362;1294;140241;-82
2022/10/13 00:53:00;;;;;;;45.80;20.80;;;;;;;8.71;68.88;101113.97;104998;1287;107050;-82
2022/10/13 00:55:33;;;;;;;40.10;20.00;;;;;;;8.70;68.96;101113.30;103662;1291;107728;-82
2022/10/13 00:58:05;;;;;;;45.60;19.70;;;;;;;8.69;69.03;101110.02;103314;1289;139384;-82
2022/10/13 01:00:34;;;;;;;41.10;20.00;;;;;;;8.67;69.16;101110.38;103454;1297;98283;-81
2022/10/13 01:03:03;;;;;;;35.80;18.30;;;;;;;8.67;69.12;101105.19;103323;1300;139879;-82
2022/10/13 01:05:33;;;;;;;42.30;19.10;;;;;;;8.65;69.13;101103.64;103417;1293;108019;-83
2022/10/13 01:08:02;;;;;;;37.40;19.40;;;;;;;8.65;69.28;101105.04;103321;1301;139157;-82
2022/10/13 01:10:42;;;;;;;32.20;18.80;;;;;;;8.63;69.27;101101.24;103443;1285;99265;-82
2022/10/13 01:13:18;;;;;;;37.70;19.60;;;;;;;8.60;69.41;101097.95;103489;1285;98012;-84
2022/10/13 01:15:57;;;;;;;33.00;19.40;;;;;;;8.57;69.48;101099.55;103396;1293;138410;-84
2022/10/13 01:18:37;;;;;;;35.90;20.60;;;;;;;8.53;69.57;101099.43;103394;1293;106819;-84
2022/10/13 01:21:15;;;;;;;42.70;21.10;;;;;;;8.46;69.59;101096.20;103324;1293;137929;-83
2022/10/13 01:24:20;;;;;;;36.00;20.70;;;;;;;8.40;69.62;101092.79;103414;1298;97860;-81
2022/10/13 01:27:04;;;;;;;42.40;22.00;;;;;;;8.32;69.75;101093.37;103827;1292;138705;-81
2022/10/13 01:30:12;;;;;;;37.90;21.40;;;;;;;8.27;69.87;101093.07;103494;1301;110075;-82
2022/10/13 01:32:59;;;;;;;35.70;21.80;;;;;;;8.20;70.13;101094.84;103378;1284;138719;-82
2022/10/13 01:35:40;;;;;;;38.50;21.60;;;;;;;8.16;70.24;101096.80;103430;1290;108209;-81
2022/10/13 01:38:21;;;;;;;40.50;21.80;;;;;;;8.11;70.33;101094.60;103263;1291;138613;-81
2022/10/13 01:41:00;;;;;;;41.00;22.40;;;;;;;8.07;70.49;101091.15;103410;1299;97692;-82
2022/10/13 01:43:35;;;;;;;46.50;23.30;;;;;;;8.04;70.43;101091.69;103447;1292;111548;-81
2022/10/13 01:46:08;;;;;;;48.80;22.20;;;;;;;8.00;70.62;101089.65;103381;1297;138413;-81
2022/10/13 01:48:39;;;;;;;42.20;21.20;;;;;;;7.98;70.89;101089.50;103431;1290;108552;-82
2022/10/13 01:51:12;;;;;;;47.50;23.00;;;;;;;7.95;71.03;101088.32;103218;1292;138525;-81
2022/10/13 01:53:43;;;;;;;54.00;23.00;;;;;;;7.93;71.07;101086.78;103445;1290;97880;-82
2022/10/13 01:56:12;;;;;;;46.10;22.90;;;;;;;7.89;71.26;101082.81;103421;1287;138825;-81
2022/10/13 01:58:42;;;;;;;42.20;22.70;;;;;;;7.86;71.13;101083.17;103962;1293;109316;-81
2022/10/13 02:01:41;;;;;;;45.90;24.30;;;;;;;7.84;71.31;101083.36;103366;1301;107985;-81
2022/10/13 02:04:22;;;;;;;48.80;24.00;;;;;;;7.80;71.37;101076.83;103891;1294;138249;-83
2022/10/13 02:06:57;;;;;;;48.90;24.50;;;;;;;7.78;71.46;101076.67;103418;1284;97839;-83
2022/10/13 02:09:32;;;;;;;52.30;24.40;;;;;;;7.75;71.59;101071.85;103342;1294;138253;-83
2022/10/13 02:12:07;;;;;;;48.50;24.10;;;;;;;7.72;71.68;101071.52;103342;1294;109176;-80
2022/10/13 02:14:40;;;;;;;41.50;22.70;;;;;;;7.71;71.81;101068.58;103279;1287;138652;-83
2022/10/13 02:17:10;;;;;;;46.40;24.40;;;;;;;7.69;71.94;101070.32;103419;1292;98566;-83
2022/10/13 02:19:40;;;;;;;50.80;25.70;;;;;;;7.68;71.96;101068.60;103396;1293;98373;-83
2022/10/13 02:22:11;;;;;;;57.80;26.50;;;;;;;7.65;72.06;101065.34;103323;1291;138314;-83
2022/10/13 02:24:40;;;;;;;49.20;25.50;;;;;;;7.64;72.13;101061.71;103407;1293;107589;-83
2022/10/13 02:27:10;;;;;;;53.20;26.20;;;;;;;7.62;72.22;101062.59;103269;1294;138514;-83
2022/10/13 02:29:50;;;;;;;48.10;26.00;;;;;;;7.61;72.27;101062.95;103415;1287;97856;-83
2022/10/13 02:32:20;;;;;;;48.10;26.00;;;;;;;7.58;72.30;101060.02;103349;1293;138513;-83
2022/10/13 02:34:50;;;;;;;47.20;25.00;;;;;;;7.56;72.37;101059.70;103471;1293;110820;-83
2022/10/13 02:37:19;;;;;;;52.20;26.10;;;;;;;7.55;72.49;101062.48;103403;1290;107927;-83
2022/10/13 02:39:47;;;;;;;51.60;26.50;;;;;;;7.55;72.56;101056.24;103298;1293;140008;-82
2022/10/13 02:42:18;;;;;;;46.00;24.30;;;;;;;7.54;72.67;101059.01;103418;1293;97838;-82
2022/10/13 02:44:47;;;;;;;50.40;25.70;;;;;;;7.54;72.85;101058.83;103335;1294;138497;-83
2022/10/13 02:47:16;;;;;;;53.90;24.50;;;;;;;7.53;72.69;101064.72;103393;1295;112200;-83
2022/10/13 02:49:44;;;;;;;46.40;23.30;;;;;;;7.53;72.78;101062.13;103475;1294;107972;-83
2022/10/13 02:52:13;;;;;;;44.30;23.40;;;;;;;7.53;72.92;101062.64;103346;1292;138192;-82
2022/10/13 02:54:43;;;;;;;45.00;21.60;;;;;;;7.54;72.84;101061.61;103460;1297;97838;-82
2022/10/13 02:57:11;;;;;;;41.80;21.10;;;;;;;7.55;72.95;101060.05;103377;1293;138186;-83
2022/10/13 02:59:44;;;;;;;35.80;18.70;;;;;;;7.57;72.96;101061.08;103507;1287;111178;-82
2022/10/13 03:02:13;;;;;;;43.60;19.90;;;;;;;7.59;72.85;101061.05;103344;1290;138761;-81
2022/10/13 03:04:42;;;;;;;38.20;18.10;;;;;;;7.61;72.96;101062.42;103444;1290;106414;-80
2022/10/13 03:07:11;;;;;;;34.70;17.00;;;;;;;7.63;72.99;101056.70;103456;1293;97840;-81
2022/10/13 03:09:39;;;;;;;30.80;18.00;;;;;;;7.65;72.87;101056.69;103345;1291;138335;-81
2022/10/13 03:12:08;;;;;;;37.30;18.60;;;;;;;7.67;72.70;101056.48;103406;1299;111741;-81
2022/10/13 03:14:38;;;;;;;31.00;17.60;;;;;;;7.69;72.80;101055.09;103555;1301;139524;-81
2022/10/13 03:17:06;;;;;;;31.60;16.70;;;;;;;7.71;72.76;101051.44;103427;1293;107671;-81
2022/10/13 03:19:41;;;;;;;34.70;17.10;;;;;;;7.72;72.60;101051.10;103438;1300;97815;-81
2022/10/13 03:22:14;;;;;;;27.90;16.00;;;;;;;7.73;72.63;101047.81;103366;1293;138869;-80
2022/10/13 03:24:43;;;;;;;33.30;16.80;;;;;;;7.74;72.62;101042.09;104560;1286;111920;-81
2022/10/13 03:27:12;;;;;;;37.00;17.80;;;;;;;7.75;72.43;101040.00;103370;1294;138435;-81
2022/10/13 03:29:41;;;;;;;34.00;16.90;;;;;;;7.76;72.58;101041.73;103417;1288;108754;-82
2022/10/13 03:32:09;;;;;;;29.50;17.60;;;;;;;7.77;72.55;101041.02;103332;1297;138682;-82
2022/10/13 03:34:38;;;;;;;28.70;16.90;;;;;;;7.77;72.37;101038.59;103444;1283;97834;-82
2022/10/13 03:37:07;;;;;;;32.80;17.40;;;;;;;7.77;72.39;101036.86;103409;1291;110638;-82
2022/10/13 03:39:42;;;;;;;35.60;18.30;;;;;;;7.77;72.33;101038.42;103310;1300;139627;-82
2022/10/13 03:42:12;;;;;;;32.80;17.40;;;;;;;7.77;72.25;101038.77;103447;1285;107012;-81
2022/10/13 03:44:40;;;;;;;36.00;18.10;;;;;;;7.76;72.20;101039.81;103308;1287;139531;-82
2022/10/13 03:47:09;;;;;;;31.00;16.90;;;;;;;7.76;72.09;101038.61;103533;1295;98339;-82
2022/10/13 03:49:38;;;;;;;35.00;17.90;;;;;;;7.75;72.25;101035.67;103386;1300;110635;-82
2022/10/13 03:52:07;;;;;;;28.60;17.50;;;;;;;7.74;72.15;101037.08;103238;1282;138875;-80
2022/10/13 03:54:36;;;;;;;34.90;18.80;;;;;;;7.73;72.15;101037.76;103428;1285;107761;-82
2022/10/13 03:57:07;;;;;;;35.70;17.90;;;;;;;7.71;72.27;101040.20;103930;1294;138434;-82
2022/10/13 03:59:35;;;;;;;31.60;18.90;;;;;;;7.70;72.22;101042.10;103434;1277;99431;-81
2022/10/13 04:02:05;;;;;;;35.20;18.20;;;;;;;7.68;72.33;101043.67;103341;1298;138376;-81
2022/10/13 04:04:36;;;;;;;32.00;19.10;;;;;;;7.66;72.31;101045.25;103445;1300;108807;-81
2022/10/13 04:07:06;;;;;;;32.40;18.90;;;;;;;7.64;72.39;101046.83;103369;1294;107857;-81
2022/10/13 04:09:34;;;;;;;36.30;19.90;;;;;;;7.60;72.29;101045.98;103318;1293;139940;-80
2022/10/13 04:12:03;;;;;;;35.90;20.00;;;;;;;7.59;72.30;101047.91;103431;1293;98324;-82
2022/10/13 04:14:32;;;;;;;40.40;21.30;;;;;;;7.55;72.29;101047.07;103340;1295;138349;-81
2022/10/13 04:17:05;;;;;;;36.40;20.30;;;;;;;7.51;72.33;101047.77;103456;1285;106558;-81
2022/10/13 04:19:34;;;;;;;40.10;20.10;;;;;;;7.49;72.43;101047.27;103513;1301;107602;-82
2022/10/13 04:22:06;;;;;;;34.60;21.00;;;;;;;7.44;72.37;101046.27;103465;1291;138445;-81
2022/10/13 04:24:36;;;;;;;39.20;20.90;;;;;;;7.41;72.57;101049.77;103549;1286;99426;-81
2022/10/13 04:27:04;;;;;;;39.10;21.40;;;;;;;7.38;72.57;101052.73;103361;1293;138215;-81
2022/10/13 04:29:33;;;;;;;38.60;19.90;;;;;;;7.34;72.68;101055.33;103471;1298;107230;-80
2022/10/13 04:32:02;;;;;;;45.90;22.30;;;;;;;7.32;72.72;101057.77;103267;1277;140969;-81
2022/10/13 04:34:31;;;;;;;38.40;21.50;;;;;;;7.28;72.60;101058.48;103412;1284;98429;-81
2022/10/13 04:36:59;;;;;;;35.30;21.30;;;;;;;7.24;72.61;101058.67;103440;1285;100092;-81
2022/10/13 04:39:28;;;;;;;38.90;21.30;;;;;;;7.19;72.62;101059.23;103349;1293;138544;-81
2022/10/13 04:41:58;;;;;;;38.90;21.20;;;;;;;7.14;72.52;101060.63;103435;1297;106906;-80
2022/10/13 04:44:26;;;;;;;39.20;20.80;;;;;;;7.09;72.87;101062.56;103306;1291;138609;-82
2022/10/13 04:46:55;;;;;;;37.70;20.90;;;;;;;7.05;72.82;101061.38;103456;1293;97904;-81
2022/10/13 04:49:25;;;;;;;40.60;21.30;;;;;;;7.02;72.72;101060.36;103451;1287;98496;-81
2022/10/13 04:51:54;;;;;;;43.50;22.10;;;;;;;6.99;72.99;101059.14;103367;1293;138250;-81
2022/10/13 04:54:23;;;;;;;40.00;21.40;;;;;;;6.98;72.97;101065.19;103433;1287;106167;-81
2022/10/13 04:56:51;;;;;;;40.90;20.90;;;;;;;6.96;73.03;101064.34;103306;1297;138410;-81
2022/10/13 04:59:20;;;;;;;34.40;22.10;;;;;;;6.95;72.97;101068.84;103474;1293;97814;-81
2022/10/13 05:01:49;;;;;;;44.80;24.60;;;;;;;6.95;73.10;101066.25;103467;1277;99559;-81
2022/10/13 05:04:17;;;;;;;48.60;27.00;;;;;;;6.95;73.05;101067.63;103332;1298;138195;-81
2022/10/13 05:06:46;;;;;;;44.50;29.70;;;;;;;6.95;73.16;101065.73;103424;1284;109238;-82
2022/10/13 05:09:35;;;;;;;47.40;29.30;;;;;;;6.95;73.06;101063.13;103224;1287;138536;-81
2022/10/13 05:12:08;;;;;;;44.40;28.20;;;;;;;6.95;73.13;101064.34;103427;1300;97787;-81
2022/10/13 05:14:37;;;;;;;45.20;27.30;;;;;;;6.96;72.89;101059.84;103369;1286;138823;-82
2022/10/13 05:17:08;;;;;;;45.80;26.40;;;;;;;6.97;72.97;101058.45;103423;1301;112407;-82
2022/10/13 05:19:37;;;;;;;38.60;24.30;;;;;;;7.02;73.02;101057.07;103389;1295;107888;-82
2022/10/13 05:22:06;;;;;;;43.10;23.90;;;;;;;7.09;73.00;101060.31;103313;1283;137329;-81
2022/10/13 05:24:38;;;;;;;42.10;23.60;;;;;;;7.17;73.03;101058.89;103350;1300;97879;-82
2022/10/13 05:27:11;;;;;;;36.30;21.00;;;;;;;7.28;72.84;101057.79;103330;1284;138328;-82
2022/10/13 05:29:41;;;;;;;37.30;20.30;;;;;;;7.41;72.75;101059.61;103452;1286;111833;-82
2022/10/13 05:32:09;;;;;;;35.00;21.00;;;;;;;7.54;72.49;101051.23;103280;1301;137617;-82
2022/10/13 05:34:38;;;;;;;34.30;19.80;;;;;;;7.67;72.27;101051.48;103405;1293;107930;-84
2022/10/13 05:37:07;;;;;;;38.50;19.80;;;;;;;7.80;72.04;101052.06;103389;1285;97903;-82
2022/10/13 05:39:35;;;;;;;39.00;19.30;;;;;;;7.95;71.68;101054.04;103307;1299;138612;-82
2022/10/13 05:42:04;;;;;;;36.30;19.70;;;;;;;8.09;71.42;101059.10;103429;1287;111111;-80
2022/10/13 05:44:35;;;;;;;33.00;19.70;;;;;;;8.25;71.31;101058.42;103296;1293;138696;-83
2022/10/13 05:47:03;;;;;;;39.40;20.90;;;;;;;8.41;70.91;101064.71;103410;1294;106902;-82
2022/10/13 05:49:38;;;;;;;39.20;21.00;;;;;;;8.58;70.49;101065.22;103408;1293;97907;-83
2022/10/13 05:52:09;;;;;;;36.70;21.10;;;;;;;8.76;70.08;101067.45;103306;1292;139400;-83
2022/10/13 05:54:41;;;;;;;35.20;19.30;;;;;;;8.91;69.63;101065.88;103499;1301;111622;-85
2022/10/13 05:57:15;;;;;;;32.80;19.00;;;;;;;9.07;69.35;101066.38;103335;1297;138758;-83
2022/10/13 05:59:49;;;;;;;33.90;19.10;;;;;;;9.26;68.88;101065.26;103436;1300;107936;-83
2022/10/13 06:02:21;;;;;;;38.60;19.80;;;;;;;9.44;68.35;101066.38;103355;1287;138765;-83
2022/10/13 06:04:54;;;;;;;34.50;18.70;;;;;;;9.60;68.05;101064.77;103394;1301;97726;-86
2022/10/13 06:07:24;;;;;;;37.40;18.00;;;;;;;9.79;67.73;101068.47;103400;1293;112281;-83
2022/10/13 06:09:53;;;;;;;36.20;18.60;;;;;;;10.01;67.21;101076.80;103288;1300;140237;-84
2022/10/13 06:12:21;;;;;;;32.20;18.80;;;;;;;10.25;66.89;101074.84;103386;1301;107149;-83
2022/10/13 06:14:51;;;;;;;37.90;18.30;;;;;;;10.52;66.32;101073.65;103314;1290;137803;-82
2022/10/13 06:17:19;;;;;;;28.60;18.00;;;;;;;10.85;65.98;101072.86;103361;1301;97832;-82
2022/10/13 06:19:48;;;;;;;34.50;19.50;;;;;;;11.20;65.23;101071.95;103424;1294;111270;-82
2022/10/13 06:22:17;;;;;;;39.60;18.60;;;;;;;11.56;64.62;101070.27;103388;1291;138559;-83
2022/10/13 06:24:46;;;;;;;42.10;18.70;;;;;;;12.02;63.80;101072.66;103375;1301;108482;-83
2022/10/13 06:27:15;;;;;;;37.20;18.10;;;;;;;12.55;62.56;101072.52;103308;1287;139139;-82
2022/10/13 06:29:45;;;;;;;35.80;18.20;;;;;;;13.01;61.81;101069.12;103432;1297;98036;-83
2022/10/13 06:32:13;;;;;;;38.90;18.20;;;;;;;13.39;61.00;101064.02;103315;1299;138718;-82
2022/10/13 06:34:42;;;;;;;43.10;18.30;;;;;;;13.74;60.34;101066.38;103637;1285;107945;-87
2022/10/13 06:37:11;;;;;;;39.30;17.00;;;;;;;14.28;59.18;101069.15;103427;1293;108833;-85
2022/10/13 06:39:40;;;;;;;41.30;17.10;;;;;;;15.00;57.88;101066.06;103320;1293;138765;-84
2022/10/13 06:42:09;;;;;;;33.70;17.10;;;;;;;15.80;56.57;101057.84;103447;1301;97846;-82
2022/10/13 06:44:43;;;;;;;31.40;16.50;;;;;;;16.72;55.48;101050.26;103364;1293;138427;-86
2022/10/13 06:47:12;;;;;;;30.30;16.20;;;;;;;17.49;54.08;101050.18;103354;1292;107897;-83
2022/10/13 06:49:41;;;;;;;34.10;16.60;;;;;;;18.13;52.80;101048.96;103313;1293;107955;-84
2022/10/13 06:52:12;;;;;;;33.90;16.20;;;;;;;18.76;51.83;101044.67;104692;1292;138015;-82
2022/10/13 06:54:41;;;;;;;37.30;15.80;;;;;;;19.33;50.59;101036.23;103673;1287;97844;-83
2022/10/13 06:57:11;;;;;;;24.50;14.60;;;;;;;19.85;49.49;101033.63;103286;1294;138116;-89
2022/10/13 06:59:39;;;;;;;31.10;14.60;;;;;;;20.25;48.19;101036.91;103462;1293;108937;-84
2022/10/13 07:02:10;;;;;;;26.10;12.20;;;;;;;20.49;46.64;101040.27;103343;1293;137334;-88
2022/10/13 07:04:38;;;;;;;23.40;12.50;;;;;;;20.65;46.15;101036.49;104104;1292;97842;-87
2022/10/13 07:07:07;;;;;;;28.90;13.00;;;;;;;20.93;45.64;101034.34;103478;1294;97745;-88
2022/10/13 07:09:36;;;;;;;22.50;12.90;;;;;;;21.22;44.58;101029.88;103353;1301;138677;-90
2022/10/13 07:12:06;;;;;;;25.80;13.50;;;;;;;21.38;43.96;101028.64;103470;1301;108050;-88
2022/10/13 07:14:35;;;;;;;26.30;11.50;;;;;;;21.60;43.64;101028.66;103633;1293;138263;-85
2022/10/13 07:17:08;;;;;;;25.30;13.10;;;;;;;21.92;43.22;101028.27;103863;1293;96694;-87
2022/10/13 07:19:37;;;;;;;25.50;12.90;;;;;;;22.20;42.92;101021.05;103435;1290;97718;-82
2022/10/13 07:22:06;;;;;;;24.30;12.20;;;;;;;22.33;42.09;101017.55;103346;1292;139066;-89
2022/10/13 07:24:35;;;;;;;23.00;11.90;;;;;;;22.47;41.71;101018.49;103439;1291;107336;-88
2022/10/13 07:27:03;;;;;;;21.20;11.50;;;;;;;22.69;41.32;101016.10;103316;1287;138226;-87
2022/10/13 07:29:36;;;;;;;25.70;11.60;;;;;;;22.80;41.01;101010.38;103416;1309;97809;-90
2022/10/13 07:32:06;;;;;;;25.60;11.80;;;;;;;22.84;40.87;101003.52;103322;1301;138810;-84
2022/10/13 07:34:34;;;;;;;41.70;11.80;;;;;;;22.75;40.67;101003.96;103434;1283;111454;-90
2022/10/13 07:37:03;;;;;;;17.40;8.80;;;;;;;22.80;40.00;101009.83;103414;1291;106050;-91
2022/10/13 07:39:33;;;;;;;17.20;8.90;;;;;;;22.84;38.88;101003.48;103294;1293;138715;-87
2022/10/13 07:42:02;;;;;;;22.50;9.00;;;;;;;22.82;38.76;101000.60;103443;1286;97853;-90
2022/10/13 07:44:30;;;;;;;46.30;12.10;;;;;;;22.82;38.39;100999.56;103320;1291;139120;-86
2022/10/13 07:47:00;;;;;;;30.70;10.80;;;;;;;22.80;38.53;100990.66;103514;1299;110119;-86
2022/10/13 07:49:28;;;;;;;22.60;9.50;;;;;;;22.81;38.43;100990.25;103412;1290;107973;-90
2022/10/13 07:51:58;;;;;;;23.40;9.60;;;;;;;22.80;38.23;100990.69;103340;1291;138678;-89
2022/10/13 07:54:28;;;;;;;24.90;9.00;;;;;;;22.76;37.60;100989.70;103383;1294;97821;-88
2022/10/13 07:56:57;;;;;;;21.20;9.40;;;;;;;22.67;37.58;100990.55;103350;1301;138131;-90
2022/10/13 07:59:26;;;;;;;22.20;9.00;;;;;;;22.65;37.96;100985.71;103360;1287;112092;-89
2022/10/13 08:01:54;;;;;;;20.30;9.20;;;;;;;22.76;37.79;100989.20;103508;1291;108742;-84
2022/10/13 08:04:24;;;;;;;18.30;9.50;;;;;;;22.83;37.40;100988.69;103414;1293;108104;-86
2022/10/13 08:06:53;;;;;;;21.00;9.20;;;;;;;22.76;36.86;100990.77;103421;1291;97853;-84
2022/10/13 08:09:21;;;;;;;16.20;9.20;;;;;;;22.75;37.09;100987.11;103367;1294;137881;-88
2022/10/13 08:11:50;;;;;;;21.40;9.20;;;;;;;22.81;37.33;100986.71;103396;1292;110709;-90
2022/10/13 08:14:19;;;;;;;17.00;9.30;;;;;;;22.96;37.03;100985.48;103327;1295;139853;-90
2022/10/13 08:16:49;;;;;;;18.70;9.90;;;;;;;23.08;36.85;100973.23;103399;1301;107722;-89
2022/10/13 08:19:22;;;;;;;20.80;9.50;;;;;;;23.12;36.10;100975.04;103306;1296;97973;-89
2022/10/13 08:21:52;;;;;;;19.90;9.30;;;;;;;23.04;36.68;100972.80;103421;1293;137798;-90
2022/10/13 08:24:29;;;;;;;21.80;10.00;;;;;;;23.14;36.54;100972.02;103410;1284;112352;-88
2022/10/13 08:26:58;;;;;;;19.40;9.70;;;;;;;23.25;36.57;100972.02;103382;1299;138086;-88
2022/10/13 08:29:27;;;;;;;16.40;9.00;;;;;;;23.45;36.55;100972.09;103483;1293;108236;-89
2022/10/13 08:31:56;;;;;;;18.80;8.70;;;;;;;23.68;36.01;100970.23;103389;1294;138024;-87
2022/10/13 08:34:25;;;;;;;21.20;9.40;;;;;;;23.84;35.83;100974.18;103442;1292;97741;-84
2022/10/13 08:36:56;;;;;;;16.70;8.80;;;;;;;23.96;35.77;100969.80;103500;1294;111604;-85
2022/10/13 08:39:25;;;;;;;16.10;8.20;;;;;;;24.02;34.98;100969.19;103334;1294;138287;-89
2022/10/13 08:41:56;;;;;;;19.00;9.20;;;;;;;23.90;34.55;100969.95;104099;1294;109720;-88
2022/10/13 08:44:33;;;;;;;41.50;11.60;;;;;;;23.80;34.86;100964.88;103297;1297;139830;-91
2022/10/13 08:47:41;;;;;;;17.90;8.10;;;;;;;23.70;34.52;100960.10;103445;1294;97759;-87
2022/10/13 08:50:14;;;;;;;22.70;8.80;;;;;;;23.64;34.52;100962.88;103376;1295;137935;-80
2022/10/13 08:52:48;;;;;;;17.30;7.90;;;;;;;23.61;34.42;100964.23;103427;1297;108305;-91
2022/10/13 08:55:26;;;;;;;12.30;6.80;;;;;;;23.54;34.26;100961.71;103419;1291;107360;-90
2022/10/13 08:57:55;;;;;;;13.70;7.00;;;;;;;23.37;34.19;100959.03;103333;1298;139669;-88
2022/10/13 09:00:29;;;;;;;14.10;7.30;;;;;;;23.27;34.36;100964.38;103447;1292;98351;-87
2022/10/13 09:03:13;;;;;;;16.00;7.50;;;;;;;23.08;33.60;100967.89;103436;1293;137703;-91
2022/10/13 09:05:49;;;;;;;14.50;6.60;;;;;;;22.66;33.97;100962.77;103498;1301;108733;-90
2022/10/13 09:08:20;;;;;;;14.80;6.20;;;;;;;22.31;34.19;100962.39;103506;1292;137045;-88
2022/10/13 09:10:50;;;;;;;14.00;6.70;;;;;;;21.98;34.08;100968.37;103568;1298;97821;-91
2022/10/13 09:13:20;;;;;;;18.60;7.00;;;;;;;21.81;34.48;100962.30;103463;1291;97841;-89
2022/10/13 09:15:50;;;;;;;11.90;6.60;;;;;;;21.50;34.09;100979.02;103396;1298;137656;-89
2022/10/13 09:18:26;;;;;;;15.20;7.10;;;;;;;21.01;34.77;100960.81;103437;1294;108046;-88
2022/10/13 09:21:10;;;;;;;14.80;6.60;;;;;;;20.64;35.37;100965.66;103341;1301;138333;-87
2022/10/13 09:23:39;;;;;;;12.10;6.30;;;;;;;20.32;35.71;100959.84;103720;1301;97838;-86
2022/10/13 09:26:18;;;;;;;17.90;6.70;;;;;;;20.18;36.25;100965.83;104125;1301;139350;-86
2022/10/13 09:28:48;;;;;;;18.80;6.70;;;;;;;20.02;36.41;100967.32;103461;1293;111554;-84
2022/10/13 09:31:20;;;;;;;17.50;7.00;;;;;;;19.89;37.02;100952.92;103468;1300;107310;-90
2022/10/13 09:33:58;;;;;;;17.60;6.80;;;;;;;19.80;36.78;100956.10;103349;1294;139218;-86
2022/10/13 09:36:27;;;;;;;13.40;6.00;;;;;;;19.68;37.15;100946.23;103499;1291;97829;-85
2022/10/13 09:39:11;;;;;;;18.00;6.60;;;;;;;19.81;37.44;100946.89;103322;1290;139376;-89
2022/10/13 09:41:42;;;;;;;17.60;7.20;;;;;;;19.86;37.27;100947.09;103699;1291;110869;-89
2022/10/13 09:44:15;;;;;;;15.00;6.10;;;;;;;19.87;37.33;100946.34;103386;1285;138092;-88
2022/10/13 09:46:51;;;;;;;17.00;6.50;;;;;;;19.96;37.45;100943.88;103512;1286;109198;-89
2022/10/13 09:49:30;;;;;;;14.10;6.40;;;;;;;19.98;37.51;100937.54;103447;1290;98474;-91
2022/10/13 09:52:02;;;;;;;9.10;5.50;;;;;;;20.00;36.82;100939.92;103329;1290;137756;-90
2022/10/13 09:54:40;;;;;;;15.90;5.70;;;;;;;19.81;36.54;100941.91;103520;1294;110627;-89
2022/10/13 09:57:16;;;;;;;14.70;5.10;;;;;;;19.57;36.59;100934.00;103400;1294;138480;-88
2022/10/13 09:59:49;;;;;;;10.60;5.10;;;;;;;19.35;36.61;100935.08;103634;1290;108615;-88
2022/10/13 10:02:27;;;;;;;9.40;4.60;;;;;;;19.12;36.63;100932.73;103349;1286;138424;-89
2022/10/13 10:05:00;;;;;;;11.80;4.90;;;;;;;18.82;36.64;100928.75;103517;1286;97815;-89
2022/10/13 10:07:32;;;;;;;12.90;4.90;;;;;;;18.55;37.04;100926.52;103807;1285;111073;-91
2022/10/13 10:10:05;;;;;;;10.00;5.40;;;;;;;18.37;37.45;100911.81;103902;1290;137884;-87
2022/10/13 10:12:40;;;;;;;14.30;5.00;;;;;;;18.31;37.89;100915.51;103503;1299;106135;-88
2022/10/13 10:15:20;;;;;;;11.80;4.20;;;;;;;18.22;37.83;100916.67;103332;1301;138079;-84
2022/10/13 10:17:55;;;;;;;11.40;5.20;;;;;;;18.03;37.73;100916.97;104588;1292;97702;-81
2022/10/13 10:20:46;;;;;;;16.00;5.00;;;;;;;17.87;38.08;100920.48;103704;1298;136926;-86
2022/10/13 10:23:25;;;;;;;9.80;5.20;;;;;;;17.76;38.63;100907.31;103516;1294;109071;-84
2022/10/13 10:25:59;;;;;;;12.00;4.40;;;;;;;17.74;39.01;100894.23;103468;1300;107044;-84
2022/10/13 10:28:50;;;;;;;14.00;4.00;;;;;;;17.78;38.60;100888.89;103431;1293;97818;-86
2022/10/13 10:31:32;;;;;;;14.20;4.10;;;;;;;17.67;38.07;100897.02;103488;1291;98392;-87
2022/10/13 10:34:16;;;;;;;12.70;4.10;;;;;;;17.43;38.35;100886.28;103371;1295;137786;-93
2022/10/13 10:36:53;;;;;;;13.50;4.00;;;;;;;17.29;38.73;100880.84;103472;1285;106979;-87
2022/10/13 10:39:29;;;;;;;;;;;;;;;17.15;38.51;100878.33;103350;1278;137892;-85
2022/10/13 10:42:03;;;;;;;10.50;3.50;;;;;;;17.00;38.91;100882.63;103462;1299;97828;-87
2022/10/13 10:44:34;;;;;;;9.60;3.40;;;;;;;16.90;39.03;100882.56;103394;1293;138575;-88
2022/10/13 10:47:11;;;;;;;8.70;3.00;;;;;;;16.77;38.84;100887.24;103397;1297;110658;-86
2022/10/13 10:49:40;;;;;;;8.70;3.40;;;;;;;16.64;39.19;100872.18;103465;1290;109104;-85
2022/10/13 10:52:27;;;;;;;10.30;3.20;;;;;;;16.68;39.77;100875.34;103335;1285;138859;-86
2022/10/13 10:55:14;;;;;;;10.10;3.30;;;;;;;16.77;39.56;100871.77;103457;1300;97810;-82
2022/10/13 10:57:57;;;;;;;7.50;3.00;;;;;;;16.76;39.49;100868.30;103349;1293;139375;-85
2022/10/13 11:00:26;;;;;;;12.90;3.50;;;;;;;16.72;39.33;100871.18;103452;1301;110712;-82
2022/10/13 11:03:07;;;;;;;14.90;3.40;;;;;;;16.63;39.59;100860.48;103209;1294;151715;-85
2022/10/13 11:06:00;;;;;;;11.40;3.40;;;;;;;16.54;39.46;100858.77;103446;1300;108179;-86
2022/10/13 11:08:38;;;;;;;7.50;3.20;;;;;;;16.48;39.82;100856.96;103261;1299;138521;-87
2022/10/13 11:11:33;;;;;;;11.80;3.40;;;;;;;16.51;39.81;100845.23;103420;1301;98321;-86
2022/10/13 11:14:24;;;;;;;9.70;2.80;;;;;;;16.47;39.62;100860.55;103230;1299;138430;-83
2022/10/13 11:17:18;;;;;;;11.20;3.30;;;;;;;16.35;39.76;100843.88;104052;1293;106100;-82
2022/10/13 11:19:48;;;;;;;9.00;2.80;;;;;;;16.32;39.97;100841.37;103422;1290;107390;-83
2022/10/13 11:22:20;;;;;;;7.90;3.00;;;;;;;16.30;40.10;100838.32;103317;1293;137567;-82
2022/10/13 11:24:59;;;;;;;15.20;3.30;;;;;;;16.25;40.25;100827.33;103439;1299;97778;-87